메인 페이지
METAR-TAF:

METAR-TAF

공항 :

도쿄 국제공항

도쿄국제공항, 일본

위도: 35-33N, 경도: 139-47E, 고도: 5m

현재 날씨관측

예보는 24분 전, 20:30시(UTC)에 발표되었습니다.
동북동2kt
온도 25°C
습도 94%
기압 1012 hPa
시정: 8000m
고도 1000ft 상공 구름 조금
고도 1200ft 상공 구름 보통
고도 2000ft 상공 구름 많음

METAR: RJTT 202030Z 06002KT 8000 FEW010 SCT012 BKN020 25/24 Q1012 NOSIG RMK 1ST010 4SC012 6SC020 A2989

시각: 05:54 (20:54 UTC)

예보

예보는 52분 전, 20:02시(UTC)에 발표되었습니다.
예보 대상 시간: 20일 20시부터 22일 00시까지 (UTC)
5kt
시정 10km 이상
고도 1000ft 상공 구름 조금
고도 1500ft 상공 구름 많음
전환 중
21일 03시부터 21일 05시까지 (UTC)
12kt

TAF: RJTT 202002Z 2020/2200 10005KT 9999 FEW010 BKN015 BECMG 2103/2105 18012KT

4,000개 이상의 공항 관측 자료 및 예보 (METAR 및 TAF 보고).

지도상에서 검색 가능한 기상관측소가 노란 점과 빨간 점으로 표시되어 있습니다.

기상관측소 명을 보려면 표시 위로 마우스를 이동하세요.

날씨 관측과 예보를 보려면 클릭하세요.

지도 변경 : 확대하려면 엑스 표시가 있는 녹색 버튼, 축소하려면 빼기 표시가 있는 녹색 버튼, 다음 페이지의 지도를 보려면 녹색 화살표를 클릭하세요.


METAR-TAF: